createdAt,value
2019-01-20T00:00:24.951Z,96044.17
2019-01-20T00:05:22.053Z,96035.00
2019-01-20T00:10:19.205Z,96040.84
2019-01-20T00:15:18.318Z,96034.30
2019-01-20T00:20:15.804Z,96030.31
2019-01-20T00:25:13.049Z,96021.75
2019-01-20T00:30:13.524Z,96024.30
2019-01-20T00:35:10.525Z,96025.72
2019-01-20T00:40:12.474Z,96025.11
2019-01-20T00:45:17.084Z,96024.33
2019-01-20T00:50:15.808Z,96029.55
2019-01-20T00:55:15.683Z,96027.61
2019-01-20T01:00:28.508Z,96019.92
2019-01-20T01:05:26.240Z,96023.19
2019-01-20T01:10:23.886Z,96017.03
2019-01-20T01:15:20.796Z,96014.69
2019-01-20T01:20:19.285Z,96011.02
2019-01-20T01:25:16.797Z,96010.09
2019-01-20T01:30:17.681Z,96004.39
2019-01-20T01:35:14.675Z,95997.63
2019-01-20T01:40:15.102Z,95987.95
2019-01-20T01:45:15.714Z,95974.41
2019-01-20T01:50:14.373Z,95970.16
2019-01-20T01:55:32.868Z,95967.88
2019-01-20T02:00:29.778Z,95956.91
2019-01-20T02:05:26.766Z,95955.71
2019-01-20T02:10:23.657Z,95952.88
2019-01-20T02:15:21.321Z,95952.22
2019-01-20T02:20:22.180Z,95938.26
2019-01-20T02:25:19.533Z,95936.84
2019-01-20T02:30:20.244Z,95923.92
2019-01-20T02:35:17.195Z,95926.34
2019-01-20T02:40:16.096Z,95928.61
2019-01-20T02:45:14.739Z,95924.52
2019-01-20T02:50:17.430Z,95918.23
2019-01-20T02:55:14.737Z,95913.55
2019-01-20T03:00:19.154Z,95918.34
2019-01-20T03:05:17.761Z,95915.98
2019-01-20T03:10:15.036Z,95917.44
2019-01-20T03:15:13.647Z,95908.50
2019-01-20T03:20:15.510Z,95900.06
2019-01-20T03:25:15.053Z,95895.08
2019-01-20T03:30:15.591Z,95893.25
2019-01-20T03:35:14.708Z,95890.56
2019-01-20T03:40:15.969Z,95886.44
2019-01-20T03:45:15.382Z,95884.86
2019-01-20T03:50:15.122Z,95879.34
2019-01-20T03:55:15.111Z,95877.87
2019-01-20T04:00:23.113Z,95875.42
2019-01-20T04:05:20.034Z,95866.20
2019-01-20T04:10:16.972Z,95867.57
2019-01-20T04:15:15.086Z,95865.83
2019-01-20T04:20:14.448Z,95867.50
2019-01-20T04:25:17.588Z,95859.85
2019-01-20T04:30:17.752Z,95851.69
2019-01-20T04:35:14.667Z,95851.73
2019-01-20T04:40:16.528Z,95848.70
2019-01-20T04:45:14.044Z,95841.56
2019-01-20T04:50:15.797Z,95846.58
2019-01-20T04:55:14.108Z,95853.27
2019-01-20T05:00:15.362Z,95846.80
2019-01-20T05:05:12.355Z,95846.98
2019-01-20T05:10:12.612Z,95846.39
2019-01-20T05:15:13.736Z,95838.27
2019-01-20T05:20:11.468Z,95839.99
2019-01-20T05:25:10.077Z,95831.69
2019-01-20T05:30:14.485Z,95827.98
2019-01-20T05:35:11.603Z,95828.55
2019-01-20T05:40:14.696Z,95832.58
2019-01-20T05:45:15.499Z,95823.70
2019-01-20T05:50:13.453Z,95816.95
2019-01-20T05:55:14.646Z,95818.02
2019-01-20T06:00:22.502Z,95806.59
2019-01-20T06:05:19.408Z,95810.03
2019-01-20T06:10:16.356Z,95801.67
2019-01-20T06:15:19.001Z,95801.91
2019-01-20T06:20:17.710Z,95803.86
2019-01-20T06:25:14.931Z,95801.44
2019-01-20T06:30:24.926Z,95801.74
2019-01-20T06:35:21.955Z,95802.34
2019-01-20T06:40:18.905Z,95797.84
2019-01-20T06:45:15.783Z,95800.89
2019-01-20T06:50:18.447Z,95803.55
2019-01-20T06:55:15.542Z,95795.34
2019-01-20T07:00:21.659Z,95802.27
2019-01-20T07:05:18.544Z,95803.99
2019-01-20T07:10:17.390Z,95794.04
2019-01-20T07:15:18.120Z,95796.50
2019-01-20T07:20:15.065Z,95799.51
2019-01-20T07:25:12.428Z,95794.76
2019-01-20T07:30:18.939Z,95796.59
2019-01-20T07:35:16.442Z,95799.59
2019-01-20T07:40:17.108Z,95805.44
2019-01-20T07:45:15.812Z,95799.33
2019-01-20T07:50:17.275Z,95806.84
2019-01-20T07:55:14.194Z,95818.89
2019-01-20T08:00:18.601Z,95827.61
2019-01-20T08:05:16.406Z,95827.73
2019-01-20T08:10:17.169Z,95816.36
2019-01-20T08:15:15.679Z,95812.38
2019-01-20T08:20:18.278Z,95809.13
2019-01-20T08:25:19.176Z,95820.60
2019-01-20T08:30:24.754Z,95814.03
2019-01-20T08:35:21.874Z,95819.58
2019-01-20T08:40:27.761Z,95816.66
2019-01-20T08:45:38.676Z,95810.63
2019-01-20T08:50:35.584Z,95809.98
2019-01-20T08:55:32.563Z,95806.88
2019-01-20T09:00:31.426Z,95794.02
2019-01-20T09:05:28.310Z,95804.55
2019-01-20T09:10:25.434Z,95799.30
2019-01-20T09:15:22.376Z,95793.94
2019-01-20T09:20:19.301Z,95790.78
2019-01-20T09:25:16.447Z,95795.09
2019-01-20T09:30:20.158Z,95793.70
2019-01-20T09:35:17.766Z,95789.96
2019-01-20T09:40:16.746Z,95788.86
2019-01-20T09:45:28.007Z,95780.67
2019-01-20T09:50:24.926Z,95779.98
2019-01-20T09:55:21.978Z,95781.22
2019-01-20T10:00:29.099Z,95772.75
2019-01-20T10:05:26.070Z,95769.86
2019-01-20T10:10:25.401Z,95770.55
2019-01-20T10:15:22.447Z,95763.43
2019-01-20T10:20:28.444Z,95762.53
2019-01-20T10:25:25.350Z,95757.57
2019-01-20T10:30:32.011Z,95756.69
2019-01-20T10:35:36.009Z,95756.94
2019-01-20T10:40:33.043Z,95746.70
2019-01-20T10:45:29.998Z,95741.86
2019-01-20T10:50:26.994Z,95738.77
2019-01-20T10:55:23.958Z,95743.42
2019-01-20T11:00:37.026Z,95744.48
2019-01-20T11:05:34.071Z,95728.80
2019-01-20T11:10:31.021Z,95727.55
2019-01-20T11:15:27.944Z,95727.88
2019-01-20T11:20:24.921Z,95728.27
2019-01-20T11:25:26.556Z,95722.34
2019-01-20T11:30:23.468Z,95713.75
2019-01-20T11:35:20.531Z,95706.62
2019-01-20T11:40:17.623Z,95709.68
2019-01-20T11:45:26.621Z,95706.75
2019-01-20T11:50:23.876Z,95702.33
2019-01-20T11:55:24.998Z,95700.60
2019-01-20T12:00:31.452Z,95700.35
2019-01-20T12:05:30.178Z,95684.23
2019-01-20T12:10:27.126Z,95690.78
2019-01-20T12:15:24.095Z,95686.06
2019-01-20T12:20:21.019Z,95683.59
2019-01-20T12:25:19.623Z,95679.35
2019-01-20T12:30:24.777Z,95677.53
2019-01-20T12:35:21.915Z,95672.63
2019-01-20T12:40:27.259Z,95678.97
2019-01-20T12:45:24.296Z,95683.30
2019-01-20T12:50:21.518Z,95676.27
2019-01-20T12:55:18.479Z,95678.91
2019-01-20T13:00:19.099Z,95674.02
2019-01-20T13:05:18.325Z,95668.92
2019-01-20T13:10:19.630Z,95662.75
2019-01-20T13:15:44.665Z,95663.53
2019-01-20T13:20:41.651Z,95661.17
2019-01-20T13:25:38.608Z,95664.42
2019-01-20T13:30:35.596Z,95661.66
2019-01-20T13:35:32.587Z,95659.06
2019-01-20T13:40:47.647Z,95654.85
2019-01-20T13:45:46.774Z,95651.66
2019-01-20T13:50:43.695Z,95654.14
2019-01-20T13:55:40.682Z,95658.22
2019-01-20T14:00:37.624Z,95652.47
2019-01-20T14:05:34.612Z,95652.17
2019-01-20T14:10:31.793Z,95658.56
2019-01-20T14:15:29.803Z,95673.83
2019-01-20T14:20:26.715Z,95681.56
2019-01-20T14:25:29.740Z,95690.16
2019-01-20T14:30:31.549Z,95684.44
2019-01-20T14:35:28.537Z,95686.87
2019-01-20T14:40:25.458Z,95680.48
2019-01-20T14:45:22.945Z,95690.41
2019-01-20T14:50:26.928Z,95700.13
2019-01-20T14:55:24.484Z,95691.91
2019-01-20T15:00:32.142Z,95695.33
2019-01-20T15:05:29.095Z,95701.47
2019-01-20T15:10:26.038Z,95691.66
2019-01-20T15:15:38.604Z,95683.16
2019-01-20T15:20:35.544Z,95681.51
2019-01-20T15:25:32.506Z,95682.09
2019-01-20T15:30:31.398Z,95685.52
2019-01-20T15:35:28.453Z,95680.41
2019-01-20T15:40:25.450Z,95681.59
2019-01-20T15:45:23.863Z,95686.54
2019-01-20T15:50:24.873Z,95688.56
2019-01-20T15:55:21.816Z,95696.23
2019-01-20T16:00:25.608Z,95698.27
2019-01-20T16:05:23.966Z,95701.61
2019-01-20T16:10:21.209Z,95692.77
2019-01-20T16:15:24.620Z,95699.30
2019-01-20T16:20:20.720Z,95708.62
2019-01-20T16:25:27.136Z,95716.45
2019-01-20T16:30:28.390Z,95720.86
2019-01-20T16:35:25.597Z,95725.00
2019-01-20T16:40:24.145Z,95731.80
2019-01-20T16:45:32.839Z,95736.01
2019-01-20T16:50:27.325Z,95742.02
2019-01-20T16:55:24.242Z,95746.53
2019-01-20T17:00:27.431Z,95737.27
2019-01-20T17:05:26.818Z,95747.92
2019-01-20T17:10:27.139Z,95760.93
2019-01-20T17:15:30.510Z,95767.03
2019-01-20T17:20:27.429Z,95758.92
2019-01-20T17:25:24.433Z,95764.27
2019-01-20T17:30:35.689Z,95776.77
2019-01-20T17:35:32.617Z,95785.81
2019-01-20T17:40:29.952Z,95779.36
2019-01-20T17:45:35.974Z,95784.97
2019-01-20T17:50:36.985Z,95790.62
2019-01-20T17:55:33.984Z,95787.60
2019-01-20T18:00:37.496Z,95780.13
2019-01-20T18:05:36.351Z,95788.48
2019-01-20T18:10:33.644Z,95801.40
2019-01-20T18:15:30.605Z,95804.97
2019-01-20T18:20:30.704Z,95812.34
2019-01-20T18:25:27.713Z,95816.89
2019-01-20T18:30:29.993Z,95820.41
2019-01-20T18:35:27.532Z,95820.33
2019-01-20T18:40:26.100Z,95823.66
2019-01-20T18:45:32.317Z,95828.48
2019-01-20T18:50:32.889Z,95836.89
2019-01-20T18:55:29.929Z,95838.14
2019-01-20T19:00:40.221Z,95834.66
2019-01-20T19:05:37.256Z,95843.04
2019-01-20T19:10:34.188Z,95850.20
2019-01-20T19:15:31.136Z,95850.91
2019-01-20T19:20:28.113Z,95852.68
2019-01-20T19:25:25.035Z,95853.10
2019-01-20T19:30:27.077Z,95858.17
2019-01-20T19:35:24.602Z,95859.31
2019-01-20T19:40:21.565Z,95854.55
2019-01-20T19:45:20.168Z,95869.09
2019-01-20T19:50:18.047Z,95862.02
2019-01-20T19:55:29.888Z,95870.37
2019-01-20T20:00:31.361Z,95876.77
2019-01-20T20:05:28.483Z,95887.73
2019-01-20T20:10:26.816Z,95897.86
2019-01-20T20:15:25.572Z,95898.68
2019-01-20T20:20:22.615Z,95892.17
2019-01-20T20:25:22.337Z,95904.31
2019-01-20T20:30:26.494Z,95907.41
2019-01-20T20:35:23.558Z,95910.59
2019-01-20T20:40:20.738Z,95915.08
2019-01-20T20:45:24.585Z,95917.27
2019-01-20T20:50:21.702Z,95923.27
2019-01-20T20:55:19.343Z,95929.83
2019-01-20T21:00:23.881Z,95934.78
2019-01-20T21:05:20.803Z,95939.73
2019-01-20T21:10:18.685Z,95949.48
2019-01-20T21:15:15.791Z,95959.66
2019-01-20T21:20:22.111Z,95973.30
2019-01-20T21:25:19.088Z,95974.03
2019-01-20T21:30:20.927Z,95974.36
2019-01-20T21:35:17.855Z,95981.48
2019-01-20T21:40:17.226Z,95984.55
2019-01-20T21:45:16.250Z,95987.28
2019-01-20T21:50:23.104Z,95991.64
2019-01-20T21:55:20.007Z,95992.87
2019-01-20T22:00:20.206Z,95997.24
2019-01-20T22:05:17.117Z,95997.22
2019-01-20T22:10:16.979Z,95995.14
2019-01-20T22:15:14.441Z,95999.56
2019-01-20T22:20:17.717Z,95997.95
2019-01-20T22:25:14.924Z,95988.82
2019-01-20T22:30:21.163Z,95992.21
2019-01-20T22:35:18.282Z,95990.80
2019-01-20T22:40:17.233Z,95993.13
2019-01-20T22:45:23.742Z,95986.41
2019-01-20T22:50:22.509Z,95999.87
2019-01-20T22:55:19.769Z,96002.39
2019-01-20T23:00:38.921Z,95995.70
2019-01-20T23:05:35.939Z,95997.42
2019-01-20T23:10:32.975Z,96000.39
2019-01-20T23:15:29.895Z,95999.09
2019-01-20T23:20:26.873Z,96009.98
2019-01-20T23:25:23.797Z,96014.89
2019-01-20T23:30:20.848Z,96018.02
2019-01-20T23:35:17.748Z,96020.41
2019-01-20T23:40:15.814Z,96022.45
2019-01-20T23:45:13.179Z,96026.87
2019-01-20T23:50:16.558Z,96026.86
2019-01-20T23:55:13.470Z,96036.31
